createdAt,value
2023-02-19T00:01:01.525Z,9.54
2023-02-19T00:04:18.193Z,9.41
2023-02-19T00:07:20.407Z,9.10
2023-02-19T00:10:22.617Z,8.80
2023-02-19T00:13:24.833Z,8.67
2023-02-19T00:16:32.374Z,8.59
2023-02-19T00:19:34.573Z,8.45
2023-02-19T00:22:36.986Z,8.49
2023-02-19T00:25:39.189Z,8.29
2023-02-19T00:28:41.410Z,8.28
2023-02-19T00:31:44.587Z,8.01
2023-02-19T00:34:46.874Z,8.04
2023-02-19T00:37:49.070Z,8.22
2023-02-19T00:40:51.266Z,8.25
2023-02-19T00:43:58.675Z,8.28
2023-02-19T00:47:00.917Z,8.46
2023-02-19T00:50:03.252Z,8.66
2023-02-19T00:53:05.494Z,8.81
2023-02-19T00:56:08.369Z,8.93
2023-02-19T00:59:11.189Z,9.04
2023-02-19T01:02:13.422Z,9.06
2023-02-19T01:05:15.666Z,8.97
2023-02-19T01:08:18.699Z,8.99
2023-02-19T01:11:20.950Z,9.06
2023-02-19T01:14:23.442Z,9.20
2023-02-19T01:17:25.787Z,9.18
2023-02-19T01:20:28.216Z,9.21
2023-02-19T01:23:30.527Z,9.17
2023-02-19T01:26:33.690Z,9.31
2023-02-19T01:29:38.094Z,9.37
2023-02-19T01:32:40.892Z,9.34
2023-02-19T01:35:43.195Z,9.30
2023-02-19T01:38:46.518Z,9.23
2023-02-19T01:41:48.867Z,9.24
2023-02-19T01:44:51.077Z,9.04
2023-02-19T01:48:02.416Z,9.14
2023-02-19T01:51:11.319Z,9.21
2023-02-19T01:54:17.718Z,9.24
2023-02-19T01:57:25.395Z,9.26
2023-02-19T02:00:28.110Z,9.35
2023-02-19T02:03:31.468Z,9.37
2023-02-19T02:06:38.957Z,9.34
2023-02-19T02:09:59.556Z,9.45
2023-02-19T02:13:05.730Z,9.41
2023-02-19T02:16:31.291Z,9.49
2023-02-19T02:19:48.158Z,9.57
2023-02-19T02:23:43.798Z,9.58
2023-02-19T02:27:01.275Z,9.58
2023-02-19T02:30:25.421Z,9.58
2023-02-19T02:33:38.023Z,9.67
2023-02-19T02:36:44.417Z,9.63
2023-02-19T02:39:49.992Z,9.63
2023-02-19T02:42:52.428Z,9.59
2023-02-19T02:45:54.875Z,9.61
2023-02-19T02:49:17.860Z,9.63
2023-02-19T02:52:39.432Z,9.62
2023-02-19T02:55:45.629Z,9.63
2023-02-19T02:58:50.346Z,9.57
2023-02-19T03:02:18.858Z,9.58
2023-02-19T03:05:50.750Z,9.55
2023-02-19T03:09:05.507Z,9.58
2023-02-19T03:12:32.939Z,9.61
2023-02-19T03:16:01.677Z,9.65
2023-02-19T03:19:20.556Z,9.65
2023-02-19T03:22:32.590Z,9.62
2023-02-19T03:25:56.426Z,9.58
2023-02-19T03:29:23.568Z,9.58
2023-02-19T03:32:34.513Z,9.62
2023-02-19T03:35:41.855Z,9.63
2023-02-19T03:38:59.621Z,9.58
2023-02-19T03:42:09.133Z,9.68
2023-02-19T03:45:45.476Z,9.62
2023-02-19T03:48:53.422Z,9.58
2023-02-19T03:52:01.326Z,9.62
2023-02-19T03:55:22.550Z,9.61
2023-02-19T03:58:48.313Z,9.47
2023-02-19T04:01:56.697Z,9.37
2023-02-19T04:05:14.085Z,9.42
2023-02-19T04:08:23.612Z,9.39
2023-02-19T04:11:33.411Z,9.37
2023-02-19T04:14:50.289Z,9.45
2023-02-19T04:17:59.416Z,9.38
2023-02-19T04:21:03.443Z,9.42
2023-02-19T04:24:14.815Z,9.47
2023-02-19T04:27:17.897Z,9.47
2023-02-19T04:30:21.739Z,9.44
2023-02-19T04:33:24.020Z,9.52
2023-02-19T04:36:26.279Z,9.47
2023-02-19T04:39:28.535Z,9.51
2023-02-19T04:42:30.780Z,9.55
2023-02-19T04:45:33.037Z,9.58
2023-02-19T04:48:35.790Z,9.52
2023-02-19T04:51:38.707Z,9.59
2023-02-19T04:54:40.964Z,9.49
2023-02-19T04:57:43.191Z,9.54
2023-02-19T05:00:46.385Z,9.58
2023-02-19T05:03:48.602Z,9.61
2023-02-19T05:06:50.849Z,9.62
2023-02-19T05:09:53.096Z,9.48
2023-02-19T05:12:57.893Z,9.48
2023-02-19T05:16:06.087Z,9.45
2023-02-19T05:19:11.382Z,9.48
2023-02-19T05:22:13.682Z,9.47
2023-02-19T05:25:16.002Z,9.45
2023-02-19T05:28:18.483Z,9.45
2023-02-19T05:31:21.187Z,9.54
2023-02-19T05:34:23.504Z,9.59
2023-02-19T05:37:25.766Z,9.55
2023-02-19T05:40:28.005Z,9.59
2023-02-19T05:43:30.223Z,9.57
2023-02-19T05:46:32.687Z,9.59
2023-02-19T05:49:34.925Z,9.68
2023-02-19T05:52:37.147Z,9.71
2023-02-19T05:55:39.361Z,9.69
2023-02-19T05:58:41.537Z,9.79
2023-02-19T06:01:44.050Z,9.77
2023-02-19T06:04:46.249Z,9.89
2023-02-19T06:07:50.496Z,9.83
2023-02-19T06:10:52.707Z,9.81
2023-02-19T06:13:54.923Z,9.72
2023-02-19T06:16:57.142Z,9.58
2023-02-19T06:20:01.915Z,9.47
2023-02-19T06:23:04.157Z,9.58
2023-02-19T06:26:13.754Z,9.65
2023-02-19T06:29:17.061Z,9.77
2023-02-19T06:32:19.367Z,9.90
2023-02-19T06:35:21.924Z,10.17
2023-02-19T06:38:24.285Z,10.39
2023-02-19T06:41:26.620Z,11.23
2023-02-19T06:44:28.827Z,11.19
2023-02-19T06:47:32.685Z,11.35
2023-02-19T06:50:34.990Z,11.28
2023-02-19T06:53:37.251Z,11.09
2023-02-19T06:56:40.734Z,11.09
2023-02-19T06:59:42.921Z,10.90
2023-02-19T07:02:45.138Z,10.90
2023-02-19T07:05:47.644Z,10.88
2023-02-19T07:08:50.854Z,10.94
2023-02-19T07:11:53.356Z,11.01
2023-02-19T07:14:55.559Z,10.95
2023-02-19T07:17:57.784Z,10.91
2023-02-19T07:21:10.261Z,11.04
2023-02-19T07:24:12.884Z,11.07
2023-02-19T07:27:15.118Z,11.14
2023-02-19T07:30:17.492Z,11.12
2023-02-19T07:33:19.791Z,11.14
2023-02-19T07:36:23.965Z,11.15
2023-02-19T07:39:26.329Z,11.25
2023-02-19T07:42:28.541Z,11.18
2023-02-19T07:45:30.853Z,11.35
2023-02-19T07:48:34.996Z,11.49
2023-02-19T07:51:39.877Z,11.66
2023-02-19T07:54:42.122Z,11.83
2023-02-19T07:57:45.499Z,11.97
2023-02-19T08:00:47.744Z,12.38
2023-02-19T08:03:50.586Z,12.59
2023-02-19T08:06:53.453Z,12.95
2023-02-19T08:10:15.622Z,13.22
2023-02-19T08:13:22.921Z,13.42
2023-02-19T08:16:40.654Z,13.53
2023-02-19T08:19:44.563Z,13.57
2023-02-19T08:22:46.813Z,13.42
2023-02-19T08:25:51.219Z,13.50
2023-02-19T08:28:53.513Z,13.14
2023-02-19T08:31:56.924Z,12.97
2023-02-19T08:34:59.229Z,12.99
2023-02-19T08:38:01.556Z,12.93
2023-02-19T08:41:06.218Z,12.96
2023-02-19T08:44:08.535Z,12.93
2023-02-19T08:47:10.797Z,12.78
2023-02-19T08:50:13.179Z,12.89
2023-02-19T08:53:15.424Z,12.89
2023-02-19T08:56:17.856Z,12.88
2023-02-19T08:59:20.728Z,13.07
2023-02-19T09:02:26.152Z,12.92
2023-02-19T09:05:28.360Z,12.85
2023-02-19T09:08:30.584Z,12.85
2023-02-19T09:11:32.799Z,12.92
2023-02-19T09:14:35.862Z,13.03
2023-02-19T09:17:38.122Z,13.00
2023-02-19T09:20:40.352Z,13.09
2023-02-19T09:23:42.620Z,13.07
2023-02-19T09:26:44.881Z,12.95
2023-02-19T09:29:47.518Z,13.00
2023-02-19T09:32:49.734Z,13.00
2023-02-19T09:35:51.981Z,12.95
2023-02-19T09:38:54.248Z,12.92
2023-02-19T09:42:23.239Z,13.00
2023-02-19T09:45:26.828Z,13.03
2023-02-19T09:48:29.353Z,13.06
2023-02-19T09:51:34.338Z,12.99
2023-02-19T09:54:38.519Z,12.83
2023-02-19T09:57:41.574Z,12.83
2023-02-19T10:00:47.793Z,12.66
2023-02-19T10:03:50.122Z,12.68
2023-02-19T10:06:52.965Z,12.51
2023-02-19T10:10:02.716Z,12.54
2023-02-19T10:13:23.137Z,12.52
2023-02-19T10:16:27.379Z,12.75
2023-02-19T10:19:29.602Z,12.76
2023-02-19T10:22:33.482Z,12.73
2023-02-19T10:25:37.138Z,12.61
2023-02-19T10:28:39.523Z,12.38
2023-02-19T10:31:42.026Z,12.31
2023-02-19T10:34:44.606Z,12.35
2023-02-19T10:37:49.807Z,12.13
2023-02-19T10:40:59.179Z,12.17
2023-02-19T10:44:30.758Z,12.14
2023-02-19T10:47:33.308Z,12.25
2023-02-19T10:50:39.366Z,12.28
2023-02-19T10:53:47.735Z,12.41
2023-02-19T10:56:49.982Z,12.42
2023-02-19T11:00:01.881Z,12.38
2023-02-19T11:03:21.879Z,12.35
2023-02-19T11:06:26.971Z,12.49
2023-02-19T11:09:36.989Z,12.59
2023-02-19T11:12:39.223Z,12.83
2023-02-19T11:15:41.980Z,12.97
2023-02-19T11:18:45.163Z,13.16
2023-02-19T11:21:48.172Z,13.47
2023-02-19T11:24:56.139Z,13.85
2023-02-19T11:28:08.494Z,14.16
2023-02-19T11:31:19.747Z,14.90
2023-02-19T11:34:24.713Z,14.83
2023-02-19T11:37:26.906Z,14.30
2023-02-19T11:40:41.150Z,15.21
2023-02-19T11:44:12.830Z,16.60
2023-02-19T11:47:39.407Z,17.77
2023-02-19T11:51:05.490Z,17.96
2023-02-19T11:54:27.287Z,20.83
2023-02-19T11:57:50.430Z,22.10
2023-02-19T12:01:05.979Z,19.68
2023-02-19T12:04:37.742Z,18.27
2023-02-19T12:07:55.545Z,21.59
2023-02-19T12:11:16.094Z,21.52
2023-02-19T12:14:33.837Z,21.12
2023-02-19T12:18:04.193Z,22.36
2023-02-19T12:21:06.364Z,23.43
2023-02-19T12:24:27.898Z,22.40
2023-02-19T12:28:00.642Z,20.81
2023-02-19T12:31:44.597Z,19.63
2023-02-19T12:35:04.745Z,19.33
2023-02-19T12:38:06.933Z,18.81
2023-02-19T12:41:21.004Z,18.45
2023-02-19T12:44:34.809Z,19.61
2023-02-19T12:47:42.210Z,21.56
2023-02-19T12:50:47.755Z,19.70
2023-02-19T12:53:58.935Z,18.90
2023-02-19T12:57:01.160Z,18.08
2023-02-19T13:00:21.076Z,17.35
2023-02-19T13:03:32.413Z,17.33
2023-02-19T13:06:57.735Z,16.95
2023-02-19T13:10:15.276Z,16.98
2023-02-19T13:13:42.333Z,16.77
2023-02-19T13:16:50.722Z,17.77
2023-02-19T13:19:58.186Z,20.36
2023-02-19T13:23:25.717Z,20.81
2023-02-19T13:26:42.699Z,21.67
2023-02-19T13:29:52.138Z,21.49
2023-02-19T13:33:06.873Z,23.36
2023-02-19T13:36:22.627Z,24.21
2023-02-19T13:39:31.897Z,23.98
2023-02-19T13:42:36.627Z,24.62
2023-02-19T13:45:42.770Z,24.89
2023-02-19T13:48:45.132Z,25.24
2023-02-19T13:51:49.627Z,24.69
2023-02-19T13:54:51.839Z,23.59
2023-02-19T13:57:54.123Z,23.52
2023-02-19T14:00:56.415Z,22.84
2023-02-19T14:04:18.583Z,24.16
2023-02-19T14:07:34.856Z,24.32
2023-02-19T14:11:03.290Z,24.80
2023-02-19T14:14:23.762Z,24.64
2023-02-19T14:17:38.983Z,23.62
2023-02-19T14:20:45.445Z,24.37
2023-02-19T14:23:54.518Z,23.77
2023-02-19T14:26:57.549Z,23.01
2023-02-19T14:30:00.129Z,24.01
2023-02-19T14:33:10.643Z,24.20
2023-02-19T14:36:25.207Z,23.02
2023-02-19T14:39:36.412Z,24.13
2023-02-19T14:42:39.033Z,22.98
2023-02-19T14:45:44.923Z,22.20
2023-02-19T14:48:49.445Z,21.71
2023-02-19T14:51:56.886Z,22.18
2023-02-19T14:55:06.095Z,22.12
2023-02-19T14:58:23.802Z,22.78
2023-02-19T15:01:27.746Z,23.04
2023-02-19T15:04:36.683Z,22.79
2023-02-19T15:07:39.051Z,22.99
2023-02-19T15:10:42.513Z,22.05
2023-02-19T15:13:50.359Z,21.00
2023-02-19T15:16:58.696Z,20.49
2023-02-19T15:20:08.687Z,20.11
2023-02-19T15:23:18.800Z,20.12
2023-02-19T15:26:23.496Z,19.86
2023-02-19T15:29:27.763Z,19.24
2023-02-19T15:32:30.022Z,18.73
2023-02-19T15:35:33.480Z,17.79
2023-02-19T15:38:35.908Z,16.60
2023-02-19T15:41:38.459Z,16.40
2023-02-19T15:44:48.715Z,16.46
2023-02-19T15:48:14.416Z,16.13
2023-02-19T15:51:31.174Z,15.52
2023-02-19T15:54:49.061Z,15.31
2023-02-19T15:58:00.456Z,14.91
2023-02-19T16:01:11.053Z,14.69
2023-02-19T16:04:16.529Z,14.40
2023-02-19T16:07:27.478Z,14.26
2023-02-19T16:10:32.560Z,14.09
2023-02-19T16:13:35.297Z,14.05
2023-02-19T16:16:40.574Z,13.88
2023-02-19T16:19:51.927Z,13.70
2023-02-19T16:23:17.390Z,13.48
2023-02-19T16:26:19.858Z,13.40
2023-02-19T16:29:27.078Z,13.32
2023-02-19T16:32:29.436Z,13.28
2023-02-19T16:35:37.171Z,13.09
2023-02-19T16:38:39.489Z,13.04
2023-02-19T16:41:47.655Z,13.10
2023-02-19T16:44:49.926Z,13.12
2023-02-19T16:47:52.171Z,12.93
2023-02-19T16:50:54.501Z,12.92
2023-02-19T16:53:56.703Z,12.81
2023-02-19T16:56:58.883Z,12.76
2023-02-19T17:00:02.300Z,12.81
2023-02-19T17:03:09.532Z,12.79
2023-02-19T17:06:12.472Z,12.86
2023-02-19T17:09:14.813Z,12.76
2023-02-19T17:12:17.739Z,12.72
2023-02-19T17:15:20.731Z,12.59
2023-02-19T17:18:23.155Z,12.56
2023-02-19T17:21:28.472Z,12.38
2023-02-19T17:24:30.766Z,12.34
2023-02-19T17:27:32.990Z,12.21
2023-02-19T17:30:35.463Z,12.08
2023-02-19T17:33:38.352Z,12.11
2023-02-19T17:36:42.939Z,12.05
2023-02-19T17:39:45.221Z,11.98
2023-02-19T17:42:47.515Z,11.89
2023-02-19T17:45:49.815Z,11.80
2023-02-19T17:48:53.084Z,11.83
2023-02-19T17:51:55.344Z,11.82
2023-02-19T17:54:57.573Z,11.93
2023-02-19T17:58:00.414Z,11.97
2023-02-19T18:01:02.761Z,11.93
2023-02-19T18:04:05.404Z,12.01
2023-02-19T18:07:07.765Z,12.05
2023-02-19T18:10:10.577Z,11.97
2023-02-19T18:13:12.845Z,12.04
2023-02-19T18:16:16.212Z,12.01
2023-02-19T18:19:18.884Z,12.00
2023-02-19T18:22:21.403Z,11.97
2023-02-19T18:25:23.761Z,11.98
2023-02-19T18:28:25.965Z,11.91
2023-02-19T18:31:28.291Z,11.93
2023-02-19T18:34:30.594Z,11.97
2023-02-19T18:37:33.930Z,11.97
2023-02-19T18:40:36.220Z,11.98
2023-02-19T18:43:38.518Z,12.05
2023-02-19T18:46:40.828Z,12.01
2023-02-19T18:49:50.213Z,12.00
2023-02-19T18:52:52.741Z,11.98
2023-02-19T18:55:54.941Z,11.89
2023-02-19T18:59:00.033Z,11.86
2023-02-19T19:02:05.037Z,11.84
2023-02-19T19:05:07.871Z,11.90
2023-02-19T19:08:10.124Z,11.83
2023-02-19T19:11:12.665Z,11.70
2023-02-19T19:14:15.170Z,11.60
2023-02-19T19:17:17.394Z,11.77
2023-02-19T19:20:22.032Z,11.73
2023-02-19T19:23:24.257Z,11.67
2023-02-19T19:26:26.524Z,11.52
2023-02-19T19:29:28.742Z,11.36
2023-02-19T19:32:31.232Z,11.01
2023-02-19T19:35:33.581Z,10.54
2023-02-19T19:38:35.944Z,10.28
2023-02-19T19:41:38.278Z,10.00
2023-02-19T19:44:40.614Z,9.96
2023-02-19T19:47:42.890Z,10.00
2023-02-19T19:50:45.133Z,10.02
2023-02-19T19:53:49.105Z,9.99
2023-02-19T19:56:51.477Z,9.93
2023-02-19T19:59:53.775Z,9.89
2023-02-19T20:02:56.178Z,9.92
2023-02-19T20:05:58.621Z,9.99
2023-02-19T20:09:00.962Z,10.08
2023-02-19T20:12:04.438Z,10.05
2023-02-19T20:15:07.981Z,10.06
2023-02-19T20:18:10.169Z,10.02
2023-02-19T20:21:14.086Z,9.99
2023-02-19T20:24:19.326Z,9.88
2023-02-19T20:27:22.994Z,9.78
2023-02-19T20:30:25.505Z,9.81
2023-02-19T20:33:27.723Z,9.72
2023-02-19T20:36:30.230Z,9.69
2023-02-19T20:39:34.392Z,9.54
2023-02-19T20:42:36.583Z,9.54
2023-02-19T20:45:39.269Z,9.58
2023-02-19T20:48:41.607Z,9.62
2023-02-19T20:51:49.993Z,9.71
2023-02-19T20:54:56.703Z,9.75
2023-02-19T20:57:58.951Z,9.71
2023-02-19T21:01:01.262Z,9.78
2023-02-19T21:04:03.586Z,9.69
2023-02-19T21:07:05.998Z,9.75
2023-02-19T21:10:08.951Z,9.83
2023-02-19T21:13:11.337Z,9.82
2023-02-19T21:16:14.043Z,9.77
2023-02-19T21:19:16.904Z,9.78
2023-02-19T21:22:19.111Z,9.72
2023-02-19T21:25:21.342Z,9.72
2023-02-19T21:28:24.698Z,9.67
2023-02-19T21:31:36.247Z,9.55
2023-02-19T21:34:38.519Z,9.58
2023-02-19T21:37:44.466Z,9.65
2023-02-19T21:40:46.714Z,9.72
2023-02-19T21:43:48.927Z,9.67
2023-02-19T21:46:51.654Z,9.62
2023-02-19T21:49:54.358Z,9.57
2023-02-19T21:52:56.559Z,9.57
2023-02-19T21:56:01.377Z,9.51
2023-02-19T21:59:04.006Z,9.51
2023-02-19T22:02:06.431Z,9.45
2023-02-19T22:05:09.031Z,9.44
2023-02-19T22:08:11.230Z,9.38
2023-02-19T22:11:13.506Z,9.38
2023-02-19T22:14:15.852Z,9.38
2023-02-19T22:17:18.386Z,9.39
2023-02-19T22:20:21.742Z,9.42
2023-02-19T22:23:24.063Z,9.42
2023-02-19T22:26:35.838Z,9.41
2023-02-19T22:29:38.096Z,9.38
2023-02-19T22:32:40.939Z,9.35
2023-02-19T22:35:43.240Z,9.28
2023-02-19T22:38:45.682Z,9.26
2023-02-19T22:41:48.098Z,9.14
2023-02-19T22:44:50.364Z,9.10
2023-02-19T22:47:56.322Z,8.96
2023-02-19T22:50:59.019Z,8.96
2023-02-19T22:54:01.603Z,8.94
2023-02-19T22:57:04.424Z,8.77
2023-02-19T23:00:07.690Z,8.72
2023-02-19T23:03:09.882Z,8.60
2023-02-19T23:06:12.475Z,8.65
2023-02-19T23:09:19.535Z,8.63
2023-02-19T23:12:21.722Z,8.57
2023-02-19T23:15:23.903Z,8.65
2023-02-19T23:18:26.128Z,8.59
2023-02-19T23:21:28.396Z,8.62
2023-02-19T23:24:30.796Z,8.60
2023-02-19T23:27:32.975Z,8.66
2023-02-19T23:30:35.337Z,8.60
2023-02-19T23:33:37.633Z,8.59
2023-02-19T23:36:44.076Z,8.52
2023-02-19T23:39:46.259Z,8.46
2023-02-19T23:42:48.636Z,8.45
2023-02-19T23:45:50.901Z,8.39
2023-02-19T23:48:53.120Z,8.39
2023-02-19T23:51:55.316Z,8.31
2023-02-19T23:54:57.623Z,8.25
2023-02-19T23:57:59.984Z,8.22
